sensor_id;sensor_type;location;lat;lon;timestamp;P1;durP1;ratioP1;P2;durP2;ratioP2
19084;SDS011;9675;51.538;6.728;2023-08-01T00:02:12;0.40;;;0.30;;
19084;SDS011;9675;51.538;6.728;2023-08-01T00:04:40;0.30;;;0.10;;
19084;SDS011;9675;51.538;6.728;2023-08-01T00:07:07;0.40;;;0.37;;
19084;SDS011;9675;51.538;6.728;2023-08-01T00:09:34;0.70;;;0.30;;
19084;SDS011;9675;51.538;6.728;2023-08-01T00:12:01;0.30;;;0.30;;
19084;SDS011;9675;51.538;6.728;2023-08-01T00:14:29;0.77;;;0.30;;
19084;SDS011;9675;51.538;6.728;2023-08-01T00:16:56;0.40;;;0.30;;
19084;SDS011;9675;51.538;6.728;2023-08-01T00:19:23;0.43;;;0.30;;
19084;SDS011;9675;51.538;6.728;2023-08-01T00:21:51;0.80;;;0.50;;
19084;SDS011;9675;51.538;6.728;2023-08-01T00:24:18;0.50;;;0.30;;
19084;SDS011;9675;51.538;6.728;2023-08-01T00:26:45;2.07;;;0.30;;
19084;SDS011;9675;51.538;6.728;2023-08-01T00:29:12;0.47;;;0.47;;
19084;SDS011;9675;51.538;6.728;2023-08-01T00:31:39;5.57;;;0.53;;
19084;SDS011;9675;51.538;6.728;2023-08-01T00:34:07;0.57;;;0.50;;
19084;SDS011;9675;51.538;6.728;2023-08-01T00:36:34;0.30;;;0.20;;
19084;SDS011;9675;51.538;6.728;2023-08-01T00:39:02;1.20;;;0.50;;
19084;SDS011;9675;51.538;6.728;2023-08-01T00:41:29;0.50;;;0.43;;
19084;SDS011;9675;51.538;6.728;2023-08-01T00:43:56;0.10;;;0.10;;
19084;SDS011;9675;51.538;6.728;2023-08-01T00:46:23;0.70;;;0.50;;
19084;SDS011;9675;51.538;6.728;2023-08-01T00:48:51;0.40;;;0.30;;
19084;SDS011;9675;51.538;6.728;2023-08-01T00:51:22;0.30;;;0.30;;
19084;SDS011;9675;51.538;6.728;2023-08-01T00:53:52;0.70;;;0.40;;
19084;SDS011;9675;51.538;6.728;2023-08-01T00:56:21;2.83;;;0.60;;
19084;SDS011;9675;51.538;6.728;2023-08-01T00:58:48;0.30;;;0.30;;
19084;SDS011;9675;51.538;6.728;2023-08-01T01:01:15;0.40;;;0.27;;
19084;SDS011;9675;51.538;6.728;2023-08-01T01:03:42;0.70;;;0.40;;
19084;SDS011;9675;51.538;6.728;2023-08-01T01:06:12;0.40;;;0.40;;
19084;SDS011;9675;51.538;6.728;2023-08-01T01:08:47;0.73;;;0.50;;
19084;SDS011;9675;51.538;6.728;2023-08-01T01:11:14;1.00;;;0.33;;
19084;SDS011;9675;51.538;6.728;2023-08-01T01:13:42;0.77;;;0.60;;
19084;SDS011;9675;51.538;6.728;2023-08-01T01:16:09;0.57;;;0.53;;
19084;SDS011;9675;51.538;6.728;2023-08-01T01:18:36;0.47;;;0.40;;
19084;SDS011;9675;51.538;6.728;2023-08-01T01:21:04;0.50;;;0.30;;
19084;SDS011;9675;51.538;6.728;2023-08-01T01:23:31;0.33;;;0.30;;
19084;SDS011;9675;51.538;6.728;2023-08-01T01:26:00;0.30;;;0.23;;
19084;SDS011;9675;51.538;6.728;2023-08-01T01:28:29;0.67;;;0.57;;
19084;SDS011;9675;51.538;6.728;2023-08-01T01:30:57;0.60;;;0.50;;
19084;SDS011;9675;51.538;6.728;2023-08-01T01:33:26;0.80;;;0.70;;
19084;SDS011;9675;51.538;6.728;2023-08-01T01:35:53;1.33;;;0.40;;
19084;SDS011;9675;51.538;6.728;2023-08-01T01:38:22;1.60;;;0.57;;
19084;SDS011;9675;51.538;6.728;2023-08-01T01:40:49;0.83;;;0.63;;
19084;SDS011;9675;51.538;6.728;2023-08-01T01:43:16;1.73;;;0.80;;
19084;SDS011;9675;51.538;6.728;2023-08-01T01:45:43;3.30;;;0.77;;
19084;SDS011;9675;51.538;6.728;2023-08-01T01:48:10;0.53;;;0.50;;
19084;SDS011;9675;51.538;6.728;2023-08-01T01:50:37;0.90;;;0.83;;
19084;SDS011;9675;51.538;6.728;2023-08-01T01:53:04;0.60;;;0.60;;
19084;SDS011;9675;51.538;6.728;2023-08-01T01:55:32;1.47;;;0.70;;
19084;SDS011;9675;51.538;6.728;2023-08-01T01:58:00;1.07;;;0.83;;
19084;SDS011;9675;51.538;6.728;2023-08-01T02:00:27;1.93;;;1.00;;
19084;SDS011;9675;51.538;6.728;2023-08-01T02:02:54;1.83;;;1.20;;
19084;SDS011;9675;51.538;6.728;2023-08-01T02:05:21;1.17;;;1.00;;
19084;SDS011;9675;51.538;6.728;2023-08-01T02:07:48;0.70;;;0.70;;
19084;SDS011;9675;51.538;6.728;2023-08-01T02:10:15;1.47;;;1.20;;
19084;SDS011;9675;51.538;6.728;2023-08-01T02:12:43;2.13;;;1.17;;
19084;SDS011;9675;51.538;6.728;2023-08-01T02:15:10;1.83;;;1.50;;
19084;SDS011;9675;51.538;6.728;2023-08-01T02:17:38;2.33;;;1.37;;
19084;SDS011;9675;51.538;6.728;2023-08-01T02:20:06;2.30;;;1.50;;
19084;SDS011;9675;51.538;6.728;2023-08-01T02:22:34;2.17;;;1.33;;
19084;SDS011;9675;51.538;6.728;2023-08-01T02:25:01;2.90;;;1.60;;
19084;SDS011;9675;51.538;6.728;2023-08-01T02:27:28;3.67;;;1.60;;
19084;SDS011;9675;51.538;6.728;2023-08-01T02:29:56;4.27;;;2.27;;
19084;SDS011;9675;51.538;6.728;2023-08-01T02:32:23;3.33;;;2.03;;
19084;SDS011;9675;51.538;6.728;2023-08-01T02:34:50;3.03;;;2.30;;
19084;SDS011;9675;51.538;6.728;2023-08-01T02:37:17;6.27;;;2.60;;
19084;SDS011;9675;51.538;6.728;2023-08-01T02:39:44;5.33;;;2.60;;
19084;SDS011;9675;51.538;6.728;2023-08-01T02:42:11;3.60;;;2.43;;
19084;SDS011;9675;51.538;6.728;2023-08-01T02:44:38;5.20;;;3.00;;
19084;SDS011;9675;51.538;6.728;2023-08-01T02:47:07;4.53;;;2.70;;
19084;SDS011;9675;51.538;6.728;2023-08-01T02:49:34;2.27;;;1.80;;
19084;SDS011;9675;51.538;6.728;2023-08-01T02:52:01;6.47;;;3.93;;
19084;SDS011;9675;51.538;6.728;2023-08-01T02:54:28;6.03;;;3.40;;
19084;SDS011;9675;51.538;6.728;2023-08-01T02:56:55;5.27;;;2.27;;
19084;SDS011;9675;51.538;6.728;2023-08-01T02:59:22;4.60;;;2.97;;
19084;SDS011;9675;51.538;6.728;2023-08-01T03:01:50;6.00;;;3.90;;
19084;SDS011;9675;51.538;6.728;2023-08-01T03:04:18;6.67;;;3.80;;
19084;SDS011;9675;51.538;6.728;2023-08-01T03:06:45;9.17;;;3.43;;
19084;SDS011;9675;51.538;6.728;2023-08-01T03:09:12;8.10;;;4.67;;
19084;SDS011;9675;51.538;6.728;2023-08-01T03:11:39;5.77;;;4.13;;
19084;SDS011;9675;51.538;6.728;2023-08-01T03:14:06;7.30;;;4.47;;
19084;SDS011;9675;51.538;6.728;2023-08-01T03:16:33;3.70;;;2.90;;
19084;SDS011;9675;51.538;6.728;2023-08-01T03:19:00;10.80;;;4.80;;
19084;SDS011;9675;51.538;6.728;2023-08-01T03:21:31;12.87;;;4.33;;
19084;SDS011;9675;51.538;6.728;2023-08-01T03:23:58;6.37;;;4.37;;
19084;SDS011;9675;51.538;6.728;2023-08-01T03:26:26;7.97;;;5.23;;
19084;SDS011;9675;51.538;6.728;2023-08-01T03:28:54;10.20;;;4.43;;
19084;SDS011;9675;51.538;6.728;2023-08-01T03:31:21;6.30;;;4.13;;
19084;SDS011;9675;51.538;6.728;2023-08-01T03:33:49;11.43;;;5.00;;
19084;SDS011;9675;51.538;6.728;2023-08-01T03:36:16;4.73;;;2.57;;
19084;SDS011;9675;51.538;6.728;2023-08-01T03:38:45;6.27;;;4.30;;
19084;SDS011;9675;51.538;6.728;2023-08-01T03:41:12;10.07;;;4.73;;
19084;SDS011;9675;51.538;6.728;2023-08-01T03:43:39;7.07;;;4.70;;
19084;SDS011;9675;51.538;6.728;2023-08-01T03:46:06;8.83;;;4.63;;
19084;SDS011;9675;51.538;6.728;2023-08-01T03:48:34;9.50;;;4.10;;
19084;SDS011;9675;51.538;6.728;2023-08-01T03:51:01;5.77;;;3.83;;
19084;SDS011;9675;51.538;6.728;2023-08-01T03:53:29;6.80;;;3.80;;
19084;SDS011;9675;51.538;6.728;2023-08-01T03:55:57;5.80;;;3.40;;
19084;SDS011;9675;51.538;6.728;2023-08-01T03:58:24;6.80;;;3.43;;
19084;SDS011;9675;51.538;6.728;2023-08-01T04:00:51;7.40;;;3.80;;
19084;SDS011;9675;51.538;6.728;2023-08-01T04:03:18;9.53;;;4.40;;
19084;SDS011;9675;51.538;6.728;2023-08-01T04:05:46;8.80;;;4.37;;
19084;SDS011;9675;51.538;6.728;2023-08-01T04:08:13;13.93;;;5.23;;
19084;SDS011;9675;51.538;6.728;2023-08-01T04:10:40;7.43;;;4.50;;
19084;SDS011;9675;51.538;6.728;2023-08-01T04:13:09;8.40;;;4.83;;
19084;SDS011;9675;51.538;6.728;2023-08-01T04:15:36;10.60;;;5.03;;
19084;SDS011;9675;51.538;6.728;2023-08-01T04:18:03;13.20;;;4.80;;
19084;SDS011;9675;51.538;6.728;2023-08-01T04:20:30;15.10;;;4.60;;
19084;SDS011;9675;51.538;6.728;2023-08-01T04:22:57;10.67;;;4.23;;
19084;SDS011;9675;51.538;6.728;2023-08-01T04:25:24;11.23;;;4.73;;
19084;SDS011;9675;51.538;6.728;2023-08-01T04:27:51;9.13;;;4.57;;
19084;SDS011;9675;51.538;6.728;2023-08-01T04:30:20;6.50;;;3.10;;
19084;SDS011;9675;51.538;6.728;2023-08-01T04:32:47;11.63;;;4.33;;
19084;SDS011;9675;51.538;6.728;2023-08-01T04:35:14;7.40;;;3.53;;
19084;SDS011;9675;51.538;6.728;2023-08-01T04:37:41;6.27;;;4.10;;
19084;SDS011;9675;51.538;6.728;2023-08-01T04:40:08;17.13;;;5.77;;
19084;SDS011;9675;51.538;6.728;2023-08-01T04:42:36;7.47;;;3.77;;
19084;SDS011;9675;51.538;6.728;2023-08-01T04:45:04;13.10;;;5.77;;
19084;SDS011;9675;51.538;6.728;2023-08-01T04:47:34;10.77;;;5.50;;
19084;SDS011;9675;51.538;6.728;2023-08-01T04:50:01;8.87;;;4.23;;
19084;SDS011;9675;51.538;6.728;2023-08-01T04:52:28;9.47;;;5.43;;
19084;SDS011;9675;51.538;6.728;2023-08-01T04:54:55;9.60;;;5.83;;
19084;SDS011;9675;51.538;6.728;2023-08-01T04:57:22;9.80;;;5.27;;
19084;SDS011;9675;51.538;6.728;2023-08-01T04:59:49;16.90;;;7.73;;
19084;SDS011;9675;51.538;6.728;2023-08-01T05:02:16;9.73;;;4.73;;
19084;SDS011;9675;51.538;6.728;2023-08-01T05:04:44;13.77;;;6.37;;
19084;SDS011;9675;51.538;6.728;2023-08-01T05:07:11;8.73;;;4.90;;
19084;SDS011;9675;51.538;6.728;2023-08-01T05:09:38;8.83;;;4.70;;
19084;SDS011;9675;51.538;6.728;2023-08-01T05:12:06;11.23;;;5.80;;
19084;SDS011;9675;51.538;6.728;2023-08-01T05:14:34;14.90;;;6.20;;
19084;SDS011;9675;51.538;6.728;2023-08-01T05:17:01;11.90;;;7.23;;
19084;SDS011;9675;51.538;6.728;2023-08-01T05:19:28;10.40;;;6.57;;
19084;SDS011;9675;51.538;6.728;2023-08-01T05:21:57;10.63;;;6.00;;
19084;SDS011;9675;51.538;6.728;2023-08-01T05:24:24;16.07;;;6.73;;
19084;SDS011;9675;51.538;6.728;2023-08-01T05:26:51;12.80;;;6.93;;
19084;SDS011;9675;51.538;6.728;2023-08-01T05:29:18;15.20;;;7.33;;
19084;SDS011;9675;51.538;6.728;2023-08-01T05:31:45;11.13;;;5.37;;
19084;SDS011;9675;51.538;6.728;2023-08-01T05:34:12;12.37;;;6.87;;
19084;SDS011;9675;51.538;6.728;2023-08-01T05:36:39;14.77;;;8.47;;
19084;SDS011;9675;51.538;6.728;2023-08-01T05:39:07;13.77;;;7.43;;
19084;SDS011;9675;51.538;6.728;2023-08-01T05:41:34;12.40;;;6.60;;
19084;SDS011;9675;51.538;6.728;2023-08-01T05:44:02;13.50;;;6.53;;
19084;SDS011;9675;51.538;6.728;2023-08-01T05:46:30;17.30;;;8.23;;
19084;SDS011;9675;51.538;6.728;2023-08-01T05:48:57;12.43;;;6.50;;
19084;SDS011;9675;51.538;6.728;2023-08-01T05:51:24;14.20;;;8.03;;
19084;SDS011;9675;51.538;6.728;2023-08-01T05:53:51;15.17;;;4.87;;
19084;SDS011;9675;51.538;6.728;2023-08-01T05:56:19;15.57;;;8.53;;
19084;SDS011;9675;51.538;6.728;2023-08-01T05:58:47;14.00;;;7.53;;
19084;SDS011;9675;51.538;6.728;2023-08-01T06:01:15;16.40;;;8.37;;
19084;SDS011;9675;51.538;6.728;2023-08-01T06:03:42;20.23;;;8.73;;
19084;SDS011;9675;51.538;6.728;2023-08-01T06:06:09;18.80;;;8.27;;
19084;SDS011;9675;51.538;6.728;2023-08-01T06:08:36;18.27;;;8.23;;
19084;SDS011;9675;51.538;6.728;2023-08-01T06:11:03;21.23;;;7.90;;
19084;SDS011;9675;51.538;6.728;2023-08-01T06:13:31;15.07;;;7.47;;
19084;SDS011;9675;51.538;6.728;2023-08-01T06:15:58;16.57;;;6.30;;
19084;SDS011;9675;51.538;6.728;2023-08-01T06:18:26;15.70;;;7.47;;
19084;SDS011;9675;51.538;6.728;2023-08-01T06:20:53;13.47;;;7.07;;
19084;SDS011;9675;51.538;6.728;2023-08-01T06:23:20;20.10;;;8.30;;
19084;SDS011;9675;51.538;6.728;2023-08-01T06:25:47;15.20;;;7.67;;
19084;SDS011;9675;51.538;6.728;2023-08-01T06:28:14;14.87;;;7.47;;
19084;SDS011;9675;51.538;6.728;2023-08-01T06:30:42;12.90;;;6.20;;
19084;SDS011;9675;51.538;6.728;2023-08-01T06:33:09;11.13;;;6.77;;
19084;SDS011;9675;51.538;6.728;2023-08-01T06:35:36;14.50;;;7.93;;
19084;SDS011;9675;51.538;6.728;2023-08-01T06:38:03;12.20;;;7.27;;
19084;SDS011;9675;51.538;6.728;2023-08-01T06:40:30;14.97;;;7.23;;
19084;SDS011;9675;51.538;6.728;2023-08-01T06:42:57;14.40;;;7.83;;
19084;SDS011;9675;51.538;6.728;2023-08-01T06:45:24;14.97;;;8.00;;
19084;SDS011;9675;51.538;6.728;2023-08-01T06:47:52;11.53;;;6.93;;
19084;SDS011;9675;51.538;6.728;2023-08-01T06:50:19;13.77;;;7.53;;
19084;SDS011;9675;51.538;6.728;2023-08-01T06:52:46;13.87;;;7.40;;
19084;SDS011;9675;51.538;6.728;2023-08-01T06:55:14;13.83;;;7.57;;
19084;SDS011;9675;51.538;6.728;2023-08-01T06:57:41;22.37;;;7.40;;
19084;SDS011;9675;51.538;6.728;2023-08-01T07:00:08;15.00;;;6.37;;
19084;SDS011;9675;51.538;6.728;2023-08-01T07:02:37;11.73;;;6.13;;
19084;SDS011;9675;51.538;6.728;2023-08-01T07:05:05;16.37;;;7.47;;
19084;SDS011;9675;51.538;6.728;2023-08-01T07:07:33;12.10;;;6.87;;
19084;SDS011;9675;51.538;6.728;2023-08-01T07:10:00;16.27;;;8.23;;
19084;SDS011;9675;51.538;6.728;2023-08-01T07:12:27;15.47;;;9.03;;
19084;SDS011;9675;51.538;6.728;2023-08-01T07:14:54;16.00;;;7.63;;
19084;SDS011;9675;51.538;6.728;2023-08-01T07:17:21;13.47;;;7.33;;
19084;SDS011;9675;51.538;6.728;2023-08-01T07:19:48;12.80;;;6.57;;
19084;SDS011;9675;51.538;6.728;2023-08-01T07:22:17;12.13;;;7.13;;
19084;SDS011;9675;51.538;6.728;2023-08-01T07:24:44;17.93;;;8.73;;
19084;SDS011;9675;51.538;6.728;2023-08-01T07:27:11;20.43;;;6.77;;
19084;SDS011;9675;51.538;6.728;2023-08-01T07:29:38;16.63;;;7.23;;
19084;SDS011;9675;51.538;6.728;2023-08-01T07:32:05;16.70;;;7.27;;
19084;SDS011;9675;51.538;6.728;2023-08-01T07:34:33;12.20;;;5.50;;
19084;SDS011;9675;51.538;6.728;2023-08-01T07:37:00;10.63;;;5.77;;
19084;SDS011;9675;51.538;6.728;2023-08-01T07:39:28;9.43;;;5.03;;
19084;SDS011;9675;51.538;6.728;2023-08-01T07:41:55;20.97;;;5.77;;
19084;SDS011;9675;51.538;6.728;2023-08-01T07:44:22;11.40;;;5.90;;
19084;SDS011;9675;51.538;6.728;2023-08-01T07:46:49;8.03;;;4.47;;
19084;SDS011;9675;51.538;6.728;2023-08-01T07:49:16;14.83;;;5.37;;
19084;SDS011;9675;51.538;6.728;2023-08-01T07:51:43;12.77;;;6.13;;
19084;SDS011;9675;51.538;6.728;2023-08-01T07:54:10;11.13;;;6.17;;
19084;SDS011;9675;51.538;6.728;2023-08-01T07:56:39;14.87;;;5.40;;
19084;SDS011;9675;51.538;6.728;2023-08-01T07:59:06;9.80;;;4.97;;
19084;SDS011;9675;51.538;6.728;2023-08-01T08:01:33;11.03;;;5.37;;
19084;SDS011;9675;51.538;6.728;2023-08-01T08:04:00;11.83;;;4.77;;
19084;SDS011;9675;51.538;6.728;2023-08-01T08:06:27;12.23;;;4.90;;
19084;SDS011;9675;51.538;6.728;2023-08-01T08:08:54;10.77;;;5.03;;
19084;SDS011;9675;51.538;6.728;2023-08-01T08:11:21;7.37;;;4.07;;
19084;SDS011;9675;51.538;6.728;2023-08-01T08:13:49;8.30;;;4.40;;
19084;SDS011;9675;51.538;6.728;2023-08-01T08:16:16;8.27;;;4.03;;
19084;SDS011;9675;51.538;6.728;2023-08-01T08:18:43;10.87;;;4.60;;
19084;SDS011;9675;51.538;6.728;2023-08-01T08:21:10;9.57;;;3.53;;
19084;SDS011;9675;51.538;6.728;2023-08-01T08:23:37;8.23;;;2.93;;
19084;SDS011;9675;51.538;6.728;2023-08-01T08:26:04;11.47;;;5.07;;
19084;SDS011;9675;51.538;6.728;2023-08-01T08:28:33;8.03;;;4.27;;
19084;SDS011;9675;51.538;6.728;2023-08-01T08:31:02;12.50;;;4.30;;
19084;SDS011;9675;51.538;6.728;2023-08-01T08:33:30;10.30;;;4.57;;
19084;SDS011;9675;51.538;6.728;2023-08-01T08:35:57;7.07;;;4.30;;
19084;SDS011;9675;51.538;6.728;2023-08-01T08:38:24;10.70;;;4.50;;
19084;SDS011;9675;51.538;6.728;2023-08-01T08:40:53;9.33;;;4.93;;
19084;SDS011;9675;51.538;6.728;2023-08-01T08:43:32;11.70;;;3.80;;
19084;SDS011;9675;51.538;6.728;2023-08-01T08:46:03;9.40;;;3.93;;
19084;SDS011;9675;51.538;6.728;2023-08-01T08:48:31;6.93;;;3.27;;
19084;SDS011;9675;51.538;6.728;2023-08-01T08:50:59;6.60;;;3.73;;
19084;SDS011;9675;51.538;6.728;2023-08-01T08:53:29;6.70;;;3.97;;
19084;SDS011;9675;51.538;6.728;2023-08-01T08:55:58;6.63;;;3.50;;
19084;SDS011;9675;51.538;6.728;2023-08-01T08:58:26;11.80;;;4.47;;
19084;SDS011;9675;51.538;6.728;2023-08-01T09:00:55;5.87;;;3.60;;
19084;SDS011;9675;51.538;6.728;2023-08-01T09:03:24;8.33;;;3.90;;
19084;SDS011;9675;51.538;6.728;2023-08-01T09:05:53;5.07;;;3.10;;
19084;SDS011;9675;51.538;6.728;2023-08-01T09:08:30;9.77;;;4.30;;
19084;SDS011;9675;51.538;6.728;2023-08-01T09:11:02;16.90;;;4.00;;
19084;SDS011;9675;51.538;6.728;2023-08-01T09:13:29;7.57;;;3.10;;
19084;SDS011;9675;51.538;6.728;2023-08-01T09:15:57;20.53;;;4.40;;
19084;SDS011;9675;51.538;6.728;2023-08-01T09:18:26;6.10;;;3.57;;
19084;SDS011;9675;51.538;6.728;2023-08-01T09:20:54;9.70;;;3.30;;
19084;SDS011;9675;51.538;6.728;2023-08-01T09:23:24;33.27;;;6.10;;
19084;SDS011;9675;51.538;6.728;2023-08-01T09:25:52;27.07;;;5.10;;
19084;SDS011;9675;51.538;6.728;2023-08-01T09:28:20;17.83;;;4.57;;
19084;SDS011;9675;51.538;6.728;2023-08-01T09:30:49;24.83;;;4.22;;
19084;SDS011;9675;51.538;6.728;2023-08-01T09:33:19;6.23;;;2.80;;
19084;SDS011;9675;51.538;6.728;2023-08-01T09:35:48;17.17;;;3.73;;
19084;SDS011;9675;51.538;6.728;2023-08-01T09:38:16;17.60;;;3.50;;
19084;SDS011;9675;51.538;6.728;2023-08-01T09:40:44;7.20;;;3.27;;
19084;SDS011;9675;51.538;6.728;2023-08-01T09:43:12;28.87;;;4.43;;
19084;SDS011;9675;51.538;6.728;2023-08-01T09:45:49;20.20;;;3.93;;
19084;SDS011;9675;51.538;6.728;2023-08-01T09:48:23;9.43;;;3.23;;
19084;SDS011;9675;51.538;6.728;2023-08-01T09:51:02;20.60;;;3.77;;
19084;SDS011;9675;51.538;6.728;2023-08-01T09:53:36;8.37;;;2.80;;
19084;SDS011;9675;51.538;6.728;2023-08-01T09:56:14;13.20;;;3.10;;
19084;SDS011;9675;51.538;6.728;2023-08-01T09:58:45;4.20;;;1.90;;
19084;SDS011;9675;51.538;6.728;2023-08-01T10:01:13;3.87;;;2.30;;
19084;SDS011;9675;51.538;6.728;2023-08-01T10:03:44;3.40;;;2.10;;
19084;SDS011;9675;51.538;6.728;2023-08-01T10:06:17;5.47;;;2.50;;
19084;SDS011;9675;51.538;6.728;2023-08-01T10:08:46;10.20;;;2.40;;
19084;SDS011;9675;51.538;6.728;2023-08-01T10:11:16;11.20;;;2.90;;
19084;SDS011;9675;51.538;6.728;2023-08-01T10:13:45;8.73;;;2.30;;
19084;SDS011;9675;51.538;6.728;2023-08-01T10:16:14;10.70;;;2.20;;
19084;SDS011;9675;51.538;6.728;2023-08-01T10:18:42;2.03;;;1.63;;
19084;SDS011;9675;51.538;6.728;2023-08-01T10:21:11;4.23;;;1.80;;
19084;SDS011;9675;51.538;6.728;2023-08-01T10:23:43;6.20;;;3.00;;
19084;SDS011;9675;51.538;6.728;2023-08-01T10:26:12;4.60;;;2.57;;
19084;SDS011;9675;51.538;6.728;2023-08-01T10:28:41;7.50;;;2.20;;
19084;SDS011;9675;51.538;6.728;2023-08-01T10:31:17;5.13;;;2.00;;
19084;SDS011;9675;51.538;6.728;2023-08-01T10:33:47;7.83;;;2.40;;
19084;SDS011;9675;51.538;6.728;2023-08-01T10:36:17;5.70;;;3.03;;
19084;SDS011;9675;51.538;6.728;2023-08-01T10:38:47;5.50;;;2.50;;
19084;SDS011;9675;51.538;6.728;2023-08-01T10:41:21;8.20;;;2.83;;
19084;SDS011;9675;51.538;6.728;2023-08-01T10:46:45;7.20;;;2.50;;
19084;SDS011;9675;51.538;6.728;2023-08-01T10:49:13;2.83;;;1.93;;
19084;SDS011;9675;51.538;6.728;2023-08-01T10:51:42;3.83;;;1.80;;
19084;SDS011;9675;51.538;6.728;2023-08-01T10:54:19;3.73;;;2.00;;
19084;SDS011;9675;51.538;6.728;2023-08-01T10:56:48;2.83;;;1.90;;
19084;SDS011;9675;51.538;6.728;2023-08-01T10:59:19;13.30;;;1.90;;
19084;SDS011;9675;51.538;6.728;2023-08-01T11:01:48;8.77;;;2.70;;
19084;SDS011;9675;51.538;6.728;2023-08-01T11:04:17;7.73;;;1.90;;
19084;SDS011;9675;51.538;6.728;2023-08-01T11:06:48;4.13;;;2.27;;
19084;SDS011;9675;51.538;6.728;2023-08-01T11:09:17;6.30;;;2.37;;
19084;SDS011;9675;51.538;6.728;2023-08-01T11:11:48;2.27;;;1.47;;
19084;SDS011;9675;51.538;6.728;2023-08-01T11:14:19;3.83;;;1.43;;
19084;SDS011;9675;51.538;6.728;2023-08-01T11:16:49;1.73;;;1.00;;
19084;SDS011;9675;51.538;6.728;2023-08-01T11:19:17;2.30;;;1.03;;
19084;SDS011;9675;51.538;6.728;2023-08-01T11:21:47;4.33;;;1.67;;
19084;SDS011;9675;51.538;6.728;2023-08-01T11:24:17;5.63;;;1.60;;
19084;SDS011;9675;51.538;6.728;2023-08-01T11:26:46;3.40;;;1.60;;
19084;SDS011;9675;51.538;6.728;2023-08-01T11:29:15;3.53;;;1.20;;
19084;SDS011;9675;51.538;6.728;2023-08-01T11:31:51;2.50;;;0.97;;
19084;SDS011;9675;51.538;6.728;2023-08-01T11:34:20;13.00;;;1.40;;
19084;SDS011;9675;51.538;6.728;2023-08-01T11:36:49;1.80;;;1.10;;
19084;SDS011;9675;51.538;6.728;2023-08-01T11:39:16;2.00;;;1.10;;
19084;SDS011;9675;51.538;6.728;2023-08-01T11:41:44;5.27;;;0.90;;
19084;SDS011;9675;51.538;6.728;2023-08-01T11:44:11;4.53;;;1.20;;
19084;SDS011;9675;51.538;6.728;2023-08-01T11:46:39;5.60;;;1.10;;
19084;SDS011;9675;51.538;6.728;2023-08-01T11:49:07;1.60;;;0.97;;
19084;SDS011;9675;51.538;6.728;2023-08-01T11:51:40;2.40;;;0.73;;
19084;SDS011;9675;51.538;6.728;2023-08-01T11:54:11;3.73;;;0.93;;
19084;SDS011;9675;51.538;6.728;2023-08-01T11:56:39;4.23;;;1.57;;
19084;SDS011;9675;51.538;6.728;2023-08-01T11:59:08;2.77;;;0.67;;
19084;SDS011;9675;51.538;6.728;2023-08-01T12:01:39;2.40;;;1.00;;
19084;SDS011;9675;51.538;6.728;2023-08-01T12:04:07;3.00;;;1.47;;
19084;SDS011;9675;51.538;6.728;2023-08-01T12:06:35;3.00;;;1.00;;
19084;SDS011;9675;51.538;6.728;2023-08-01T12:09:08;4.27;;;1.20;;
19084;SDS011;9675;51.538;6.728;2023-08-01T12:11:39;4.20;;;1.40;;
19084;SDS011;9675;51.538;6.728;2023-08-01T12:14:08;3.37;;;1.10;;
19084;SDS011;9675;51.538;6.728;2023-08-01T12:16:39;5.97;;;1.20;;
19084;SDS011;9675;51.538;6.728;2023-08-01T12:19:09;5.07;;;1.10;;
19084;SDS011;9675;51.538;6.728;2023-08-01T12:21:37;1.77;;;0.90;;
19084;SDS011;9675;51.538;6.728;2023-08-01T12:24:04;1.87;;;0.70;;
19084;SDS011;9675;51.538;6.728;2023-08-01T12:26:33;1.80;;;0.90;;
19084;SDS011;9675;51.538;6.728;2023-08-01T12:29:00;2.87;;;0.87;;
19084;SDS011;9675;51.538;6.728;2023-08-01T12:31:28;2.00;;;0.87;;
19084;SDS011;9675;51.538;6.728;2023-08-01T12:33:55;1.07;;;0.80;;
19084;SDS011;9675;51.538;6.728;2023-08-01T12:36:23;8.10;;;1.60;;
19084;SDS011;9675;51.538;6.728;2023-08-01T12:38:50;1.67;;;0.90;;
19084;SDS011;9675;51.538;6.728;2023-08-01T12:41:17;6.73;;;1.30;;
19084;SDS011;9675;51.538;6.728;2023-08-01T12:43:45;2.00;;;1.00;;
19084;SDS011;9675;51.538;6.728;2023-08-01T12:46:12;3.33;;;1.27;;
19084;SDS011;9675;51.538;6.728;2023-08-01T12:48:39;5.57;;;1.20;;
19084;SDS011;9675;51.538;6.728;2023-08-01T12:51:07;3.13;;;0.83;;
19084;SDS011;9675;51.538;6.728;2023-08-01T12:53:34;4.30;;;1.10;;
19084;SDS011;9675;51.538;6.728;2023-08-01T12:56:01;8.37;;;1.13;;
19084;SDS011;9675;51.538;6.728;2023-08-01T12:58:30;5.20;;;1.00;;
19084;SDS011;9675;51.538;6.728;2023-08-01T13:00:58;5.73;;;1.00;;
19084;SDS011;9675;51.538;6.728;2023-08-01T13:03:25;5.67;;;1.30;;
19084;SDS011;9675;51.538;6.728;2023-08-01T13:05:52;3.03;;;1.00;;
19084;SDS011;9675;51.538;6.728;2023-08-01T13:08:21;4.03;;;1.20;;
19084;SDS011;9675;51.538;6.728;2023-08-01T13:10:49;4.40;;;1.03;;
19084;SDS011;9675;51.538;6.728;2023-08-01T13:13:16;5.20;;;1.23;;
19084;SDS011;9675;51.538;6.728;2023-08-01T13:15:43;3.13;;;1.13;;
19084;SDS011;9675;51.538;6.728;2023-08-01T13:18:12;2.77;;;0.77;;
19084;SDS011;9675;51.538;6.728;2023-08-01T13:20:40;2.30;;;1.00;;
19084;SDS011;9675;51.538;6.728;2023-08-01T13:23:07;3.33;;;1.33;;
19084;SDS011;9675;51.538;6.728;2023-08-01T13:25:34;2.93;;;0.90;;
19084;SDS011;9675;51.538;6.728;2023-08-01T13:28:01;4.47;;;0.70;;
19084;SDS011;9675;51.538;6.728;2023-08-01T13:30:29;2.50;;;0.70;;
19084;SDS011;9675;51.538;6.728;2023-08-01T13:32:56;2.97;;;1.10;;
19084;SDS011;9675;51.538;6.728;2023-08-01T13:35:25;5.50;;;0.93;;
19084;SDS011;9675;51.538;6.728;2023-08-01T13:37:52;2.03;;;0.70;;
19084;SDS011;9675;51.538;6.728;2023-08-01T13:40:19;3.63;;;0.90;;
19084;SDS011;9675;51.538;6.728;2023-08-01T13:42:46;1.30;;;0.60;;
19084;SDS011;9675;51.538;6.728;2023-08-01T13:45:13;7.97;;;1.20;;
19084;SDS011;9675;51.538;6.728;2023-08-01T13:47:40;3.50;;;0.83;;
19084;SDS011;9675;51.538;6.728;2023-08-01T13:50:07;4.63;;;1.00;;
19084;SDS011;9675;51.538;6.728;2023-08-01T13:52:37;8.73;;;1.60;;
19084;SDS011;9675;51.538;6.728;2023-08-01T13:55:05;2.43;;;0.80;;
19084;SDS011;9675;51.538;6.728;2023-08-01T13:57:33;2.00;;;0.90;;
19084;SDS011;9675;51.538;6.728;2023-08-01T14:00:00;1.77;;;0.70;;
19084;SDS011;9675;51.538;6.728;2023-08-01T14:02:27;3.60;;;1.00;;
19084;SDS011;9675;51.538;6.728;2023-08-01T14:04:55;3.60;;;0.57;;
19084;SDS011;9675;51.538;6.728;2023-08-01T14:07:22;12.33;;;2.07;;
19084;SDS011;9675;51.538;6.728;2023-08-01T14:09:51;4.90;;;1.20;;
19084;SDS011;9675;51.538;6.728;2023-08-01T14:12:18;7.13;;;1.37;;
19084;SDS011;9675;51.538;6.728;2023-08-01T14:14:45;2.40;;;1.00;;
19084;SDS011;9675;51.538;6.728;2023-08-01T14:17:12;3.33;;;0.60;;
19084;SDS011;9675;51.538;6.728;2023-08-01T14:19:39;2.97;;;0.80;;
19084;SDS011;9675;51.538;6.728;2023-08-01T14:22:06;4.30;;;0.97;;
19084;SDS011;9675;51.538;6.728;2023-08-01T14:24:33;5.60;;;1.03;;
19084;SDS011;9675;51.538;6.728;2023-08-01T14:27:01;2.20;;;0.90;;
19084;SDS011;9675;51.538;6.728;2023-08-01T14:29:29;4.10;;;0.80;;
19084;SDS011;9675;51.538;6.728;2023-08-01T14:31:56;6.47;;;1.37;;
19084;SDS011;9675;51.538;6.728;2023-08-01T14:34:23;5.83;;;1.47;;
19084;SDS011;9675;51.538;6.728;2023-08-01T14:36:50;3.47;;;0.93;;
19084;SDS011;9675;51.538;6.728;2023-08-01T14:39:17;7.37;;;1.53;;
19084;SDS011;9675;51.538;6.728;2023-08-01T14:41:44;3.37;;;1.13;;
19084;SDS011;9675;51.538;6.728;2023-08-01T14:44:12;3.67;;;1.10;;
19084;SDS011;9675;51.538;6.728;2023-08-01T14:46:39;4.23;;;0.93;;
19084;SDS011;9675;51.538;6.728;2023-08-01T14:49:07;4.50;;;1.10;;
19084;SDS011;9675;51.538;6.728;2023-08-01T14:51:34;2.67;;;0.90;;
19084;SDS011;9675;51.538;6.728;2023-08-01T14:54:01;1.50;;;0.77;;
19084;SDS011;9675;51.538;6.728;2023-08-01T14:56:28;4.63;;;1.27;;
19084;SDS011;9675;51.538;6.728;2023-08-01T14:58:55;4.43;;;0.73;;
19084;SDS011;9675;51.538;6.728;2023-08-01T15:01:25;0.87;;;0.50;;
19084;SDS011;9675;51.538;6.728;2023-08-01T15:03:52;1.73;;;0.80;;
19084;SDS011;9675;51.538;6.728;2023-08-01T15:06:19;1.93;;;0.70;;